createdAt,value
2019-05-07T00:00:52.697Z,3.30
2019-05-07T00:03:18.866Z,3.20
2019-05-07T00:05:45.166Z,3.20
2019-05-07T00:08:12.183Z,3.20
2019-05-07T00:10:38.481Z,3.20
2019-05-07T00:13:04.846Z,3.40
2019-05-07T00:15:32.801Z,3.20
2019-05-07T00:17:59.052Z,3.20
2019-05-07T00:20:25.179Z,3.20
2019-05-07T00:22:53.265Z,3.20
2019-05-07T00:25:19.302Z,3.20
2019-05-07T00:27:45.423Z,3.20
2019-05-07T00:30:12.618Z,3.20
2019-05-07T00:32:38.937Z,3.40
2019-05-07T00:35:12.962Z,3.50
2019-05-07T00:37:43.004Z,3.30
2019-05-07T00:40:16.998Z,3.20
2019-05-07T00:42:48.034Z,3.30
2019-05-07T00:45:25.114Z,3.10
2019-05-07T00:47:52.119Z,3.00
2019-05-07T00:50:22.413Z,2.90
2019-05-07T00:52:48.284Z,3.00
2019-05-07T00:55:14.523Z,3.00
2019-05-07T00:57:42.737Z,3.00
2019-05-07T01:00:09.498Z,3.00
2019-05-07T01:02:35.742Z,3.00
2019-05-07T01:05:03.042Z,3.10
2019-05-07T01:07:29.447Z,3.00
2019-05-07T01:09:55.518Z,3.10
2019-05-07T01:12:22.181Z,3.20
2019-05-07T01:14:48.646Z,3.20
2019-05-07T01:17:14.843Z,3.30
2019-05-07T01:19:42.332Z,3.20
2019-05-07T01:22:08.673Z,3.30
2019-05-07T01:24:34.794Z,3.40
2019-05-07T01:27:02.151Z,3.40
2019-05-07T01:29:28.442Z,3.30
2019-05-07T01:31:59.338Z,3.30
2019-05-07T01:34:39.402Z,3.20
2019-05-07T01:37:05.556Z,3.20
2019-05-07T01:39:32.643Z,3.20
2019-05-07T01:41:59.148Z,3.10
2019-05-07T01:44:25.355Z,3.00
2019-05-07T01:46:52.917Z,2.90
2019-05-07T01:49:19.293Z,2.90
2019-05-07T01:51:45.427Z,2.90
2019-05-07T01:54:12.914Z,2.90
2019-05-07T01:56:39.327Z,2.90
2019-05-07T01:59:05.434Z,2.90
2019-05-07T02:01:33.173Z,3.00
2019-05-07T02:04:07.786Z,3.00
2019-05-07T02:06:39.182Z,3.00
2019-05-07T02:09:23.733Z,3.00
2019-05-07T02:12:02.448Z,3.10
2019-05-07T02:14:28.770Z,3.10
2019-05-07T02:16:54.857Z,3.00
2019-05-07T02:19:22.016Z,3.00
2019-05-07T02:21:48.283Z,2.90
2019-05-07T02:24:14.410Z,3.00
2019-05-07T02:26:42.526Z,3.10
2019-05-07T02:29:08.591Z,3.10
2019-05-07T02:31:34.905Z,3.20
2019-05-07T02:34:02.790Z,3.20
2019-05-07T02:36:29.184Z,3.30
2019-05-07T02:38:57.262Z,3.10
2019-05-07T02:41:28.051Z,3.10
2019-05-07T02:43:54.158Z,3.20
2019-05-07T02:46:35.187Z,3.20
2019-05-07T02:49:03.150Z,3.10
2019-05-07T02:51:33.940Z,3.20
2019-05-07T02:54:04.799Z,3.20
2019-05-07T02:56:33.353Z,3.30
2019-05-07T02:58:58.972Z,3.30
2019-05-07T03:01:25.518Z,3.20
2019-05-07T03:03:52.850Z,3.30
2019-05-07T03:06:19.165Z,3.40
2019-05-07T03:08:45.478Z,3.40
2019-05-07T03:11:14.106Z,3.40
2019-05-07T03:13:43.005Z,3.30
2019-05-07T03:16:08.349Z,3.30
2019-05-07T03:18:34.449Z,3.30
2019-05-07T03:21:03.509Z,3.30
2019-05-07T03:23:33.995Z,3.30
2019-05-07T03:26:04.802Z,3.30
2019-05-07T03:28:33.563Z,3.30
2019-05-07T03:31:07.574Z,3.30
2019-05-07T03:33:47.188Z,3.40
2019-05-07T03:36:15.859Z,3.40
2019-05-07T03:38:38.128Z,3.40
2019-05-07T03:41:04.256Z,3.40
2019-05-07T03:43:32.505Z,3.40
2019-05-07T03:46:06.150Z,3.30
2019-05-07T03:48:34.173Z,3.40
2019-05-07T03:51:03.379Z,3.40
2019-05-07T03:53:28.307Z,3.30
2019-05-07T03:55:54.468Z,3.30
2019-05-07T03:58:23.242Z,3.20
2019-05-07T04:00:48.715Z,3.10
2019-05-07T04:03:19.363Z,3.20
2019-05-07T04:05:43.640Z,3.10
2019-05-07T04:08:12.869Z,3.00
2019-05-07T04:10:37.897Z,3.00
2019-05-07T04:13:04.681Z,3.00
2019-05-07T04:15:32.971Z,3.00
2019-05-07T04:17:59.202Z,3.10
2019-05-07T04:20:25.325Z,3.10
2019-05-07T04:22:53.550Z,3.10
2019-05-07T04:25:24.373Z,3.20
2019-05-07T04:28:03.803Z,3.20
2019-05-07T04:30:33.103Z,3.30
2019-05-07T04:33:03.421Z,3.30
2019-05-07T04:35:43.407Z,3.40
2019-05-07T04:38:08.736Z,3.40
2019-05-07T04:40:34.958Z,3.40
2019-05-07T04:43:02.728Z,3.50
2019-05-07T04:45:29.149Z,3.50
2019-05-07T04:47:55.250Z,3.50
2019-05-07T04:50:37.902Z,3.50
2019-05-07T04:52:53.855Z,3.60
2019-05-07T04:55:19.329Z,3.60
2019-05-07T04:57:45.394Z,3.70
2019-05-07T05:00:13.420Z,3.70
2019-05-07T05:02:56.975Z,3.80
2019-05-07T05:05:24.094Z,3.90
2019-05-07T05:07:50.233Z,4.00
2019-05-07T05:10:16.875Z,4.00
2019-05-07T05:12:43.114Z,4.00
2019-05-07T05:15:09.592Z,4.10
2019-05-07T05:17:47.054Z,4.10
2019-05-07T05:20:06.486Z,4.20
2019-05-07T05:22:49.498Z,4.30
2019-05-07T05:25:17.707Z,4.30
2019-05-07T05:27:43.824Z,4.30
2019-05-07T05:30:28.991Z,4.50
2019-05-07T05:32:55.223Z,4.60
2019-05-07T05:35:22.229Z,4.50
2019-05-07T05:37:48.524Z,4.60
2019-05-07T05:40:16.719Z,4.50
2019-05-07T05:42:47.655Z,4.50
2019-05-07T05:45:33.841Z,4.50
2019-05-07T05:48:04.695Z,4.60
2019-05-07T05:50:29.923Z,4.80
2019-05-07T05:52:57.988Z,5.00
2019-05-07T05:55:24.152Z,5.00
2019-05-07T05:57:52.276Z,5.00
2019-05-07T06:00:22.081Z,4.90
2019-05-07T06:02:59.430Z,5.20
2019-05-07T06:05:42.628Z,5.20
2019-05-07T06:08:17.683Z,5.20
2019-05-07T06:10:45.970Z,5.40
2019-05-07T06:13:19.846Z,5.50
2019-05-07T06:16:00.262Z,5.60
2019-05-07T06:18:41.886Z,5.60
2019-05-07T06:21:24.106Z,5.70
2019-05-07T06:24:02.228Z,5.60
2019-05-07T06:26:28.520Z,5.80
2019-05-07T06:28:54.593Z,6.00
2019-05-07T06:31:22.157Z,6.00
2019-05-07T06:33:48.411Z,6.20
2019-05-07T06:36:14.610Z,6.10
2019-05-07T06:38:42.747Z,6.00
2019-05-07T06:41:12.171Z,6.10
2019-05-07T06:43:42.185Z,6.10
2019-05-07T06:46:08.399Z,6.00
2019-05-07T06:48:42.454Z,6.00
2019-05-07T06:51:07.630Z,6.10
2019-05-07T06:53:34.283Z,6.30
2019-05-07T06:56:02.836Z,6.50
2019-05-07T06:58:32.698Z,6.60
2019-05-07T07:01:15.051Z,6.70
2019-05-07T07:04:02.676Z,6.80
2019-05-07T07:06:32.207Z,6.90
2019-05-07T07:09:17.550Z,6.90
2019-05-07T07:12:04.412Z,7.10
2019-05-07T07:14:33.200Z,7.40
2019-05-07T07:17:02.286Z,7.60
2019-05-07T07:19:29.075Z,7.80
2019-05-07T07:21:55.781Z,7.60
2019-05-07T07:24:22.663Z,7.70
2019-05-07T07:26:49.185Z,8.00
2019-05-07T07:29:17.657Z,8.00
2019-05-07T07:31:52.796Z,8.40
2019-05-07T07:34:22.573Z,8.60
2019-05-07T07:37:04.989Z,8.70
2019-05-07T07:39:22.076Z,8.70
2019-05-07T07:41:53.727Z,8.60
2019-05-07T07:44:22.366Z,8.70
2019-05-07T07:46:49.224Z,8.90
2019-05-07T07:49:15.872Z,9.30
2019-05-07T07:51:45.444Z,9.60
2019-05-07T07:54:12.534Z,9.70
2019-05-07T07:56:51.891Z,9.40
2019-05-07T07:59:28.587Z,9.60
2019-05-07T08:01:57.540Z,9.80
2019-05-07T08:04:24.022Z,10.20
2019-05-07T08:07:03.007Z,10.30
2019-05-07T08:09:32.404Z,10.30
2019-05-07T08:11:59.509Z,10.60
2019-05-07T08:14:26.302Z,10.80
2019-05-07T08:16:52.935Z,11.10
2019-05-07T08:19:24.370Z,11.10
2019-05-07T08:21:47.810Z,11.20
2019-05-07T08:24:14.202Z,11.20
2019-05-07T08:26:42.787Z,11.00
2019-05-07T08:29:09.359Z,10.60
2019-05-07T08:31:46.852Z,10.70
2019-05-07T08:34:15.219Z,10.60
2019-05-07T08:36:42.113Z,10.40
2019-05-07T08:39:09.102Z,10.40
2019-05-07T08:41:35.715Z,10.70
2019-05-07T08:44:11.501Z,11.00
2019-05-07T08:46:46.686Z,11.40
2019-05-07T08:49:35.624Z,11.60
2019-05-07T08:52:03.062Z,11.50
2019-05-07T08:54:32.113Z,11.50
2019-05-07T08:56:58.884Z,11.80
2019-05-07T08:59:25.909Z,12.00
2019-05-07T09:01:52.482Z,11.80
2019-05-07T09:04:19.085Z,11.50
2019-05-07T09:06:45.723Z,11.70
2019-05-07T09:09:13.246Z,11.80
2019-05-07T09:11:42.675Z,11.90
2019-05-07T09:14:12.215Z,12.10
2019-05-07T09:16:38.158Z,12.00
2019-05-07T09:19:05.072Z,12.20
2019-05-07T09:21:34.531Z,12.00
2019-05-07T09:24:02.518Z,12.10
2019-05-07T09:26:36.993Z,11.70
2019-05-07T09:29:08.605Z,11.70
2019-05-07T09:31:37.131Z,11.70
2019-05-07T09:34:03.461Z,12.30
2019-05-07T09:36:32.271Z,12.90
2019-05-07T09:38:59.312Z,12.80
2019-05-07T09:41:25.729Z,12.80
2019-05-07T09:43:51.928Z,12.60
2019-05-07T09:46:20.198Z,12.50
2019-05-07T09:48:46.089Z,12.30
2019-05-07T09:51:12.335Z,12.70
2019-05-07T09:53:38.665Z,12.30
2019-05-07T09:56:04.972Z,12.10
2019-05-07T09:58:36.439Z,11.50
2019-05-07T10:00:59.443Z,11.60
2019-05-07T10:03:25.625Z,12.30
2019-05-07T10:05:51.920Z,12.50
2019-05-07T10:08:18.119Z,12.80
2019-05-07T10:10:46.159Z,12.60
2019-05-07T10:13:14.404Z,12.30
2019-05-07T10:15:41.855Z,12.00
2019-05-07T10:18:15.694Z,11.90
2019-05-07T10:20:42.260Z,12.00
2019-05-07T10:23:11.620Z,11.90
2019-05-07T10:25:38.211Z,12.10
2019-05-07T10:28:04.753Z,12.40
2019-05-07T10:30:32.140Z,12.70
2019-05-07T10:32:58.489Z,12.70
2019-05-07T10:35:24.720Z,12.50
2019-05-07T10:37:52.801Z,12.60
2019-05-07T10:40:19.950Z,12.50
2019-05-07T10:42:46.026Z,12.30
2019-05-07T10:45:32.955Z,12.30
2019-05-07T10:48:04.044Z,12.20
2019-05-07T10:50:38.665Z,12.30
2019-05-07T10:53:01.926Z,12.30
2019-05-07T10:55:27.927Z,12.40
2019-05-07T10:57:54.228Z,12.30
2019-05-07T11:00:23.214Z,12.30
2019-05-07T11:02:51.513Z,12.40
2019-05-07T11:05:17.604Z,12.40
2019-05-07T11:07:43.765Z,12.30
2019-05-07T11:10:12.392Z,12.40
2019-05-07T11:12:38.650Z,12.60
2019-05-07T11:15:05.394Z,13.00
2019-05-07T11:17:39.518Z,13.10
2019-05-07T11:20:06.393Z,12.80
2019-05-07T11:22:32.882Z,12.90
2019-05-07T11:24:59.114Z,13.00
2019-05-07T11:27:25.290Z,12.90
2019-05-07T11:29:51.459Z,13.10
2019-05-07T11:32:17.898Z,13.00
2019-05-07T11:34:45.032Z,13.20
2019-05-07T11:37:11.907Z,13.30
2019-05-07T11:39:38.332Z,13.20
2019-05-07T11:42:22.077Z,13.30
2019-05-07T11:44:49.086Z,13.40
2019-05-07T11:47:29.293Z,12.80
2019-05-07T11:50:14.707Z,12.80
2019-05-07T11:52:42.630Z,12.90
2019-05-07T11:55:09.258Z,12.60
2019-05-07T11:57:35.385Z,12.70
2019-05-07T12:00:04.204Z,13.00
2019-05-07T12:02:32.038Z,13.40
2019-05-07T12:04:58.389Z,13.70
2019-05-07T12:07:24.502Z,13.70
2019-05-07T12:09:52.628Z,13.60
2019-05-07T12:12:18.903Z,13.60
2019-05-07T12:14:45.192Z,13.50
2019-05-07T12:17:11.984Z,13.50
2019-05-07T12:19:38.214Z,13.40
2019-05-07T12:22:05.668Z,13.50
2019-05-07T12:24:32.838Z,13.40
2019-05-07T12:26:59.190Z,13.50
2019-05-07T12:29:26.312Z,13.30
2019-05-07T12:31:57.087Z,12.80
2019-05-07T12:34:34.302Z,12.90
2019-05-07T12:37:01.722Z,13.40
2019-05-07T12:39:28.073Z,13.60
2019-05-07T12:41:54.319Z,13.40
2019-05-07T12:44:22.201Z,13.70
2019-05-07T12:46:48.643Z,13.60
2019-05-07T12:49:14.849Z,13.50
2019-05-07T12:51:43.027Z,13.70
2019-05-07T12:54:14.099Z,13.70
2019-05-07T12:56:42.501Z,13.40
2019-05-07T12:59:08.313Z,13.60
2019-05-07T13:01:48.875Z,13.70
2019-05-07T13:04:16.853Z,13.70
2019-05-07T13:07:02.476Z,13.80
2019-05-07T13:09:28.885Z,13.70
2019-05-07T13:11:55.213Z,13.50
2019-05-07T13:14:21.858Z,13.30
2019-05-07T13:16:48.107Z,13.30
2019-05-07T13:19:14.225Z,13.10
2019-05-07T13:21:47.463Z,13.10
2019-05-07T13:24:08.549Z,12.90
2019-05-07T13:26:34.901Z,13.20
2019-05-07T13:29:02.511Z,13.50
2019-05-07T13:31:32.693Z,13.60
2019-05-07T13:34:02.740Z,13.80
2019-05-07T13:36:32.434Z,13.40
2019-05-07T13:39:10.575Z,13.50
2019-05-07T13:41:41.501Z,13.90
2019-05-07T13:44:46.162Z,14.10
2019-05-07T13:47:23.835Z,13.90
2019-05-07T13:49:53.522Z,14.10
2019-05-07T13:52:18.889Z,14.20
2019-05-07T13:54:45.301Z,14.60
2019-05-07T13:57:12.037Z,14.60
2019-05-07T13:59:38.545Z,14.70
2019-05-07T14:02:06.855Z,14.30
2019-05-07T14:04:33.037Z,14.20
2019-05-07T14:07:01.926Z,14.50
2019-05-07T14:09:28.184Z,15.00
2019-05-07T14:11:54.415Z,14.60
2019-05-07T14:14:22.378Z,14.70
2019-05-07T14:16:49.570Z,15.00
2019-05-07T14:19:15.807Z,15.50
2019-05-07T14:21:42.307Z,15.30
2019-05-07T14:24:08.498Z,15.40
2019-05-07T14:26:34.587Z,14.90
2019-05-07T14:29:01.929Z,15.20
2019-05-07T14:31:28.338Z,15.30
2019-05-07T14:34:05.513Z,14.90
2019-05-07T14:36:36.811Z,14.80
2019-05-07T14:39:06.209Z,14.30
2019-05-07T14:41:32.635Z,14.40
2019-05-07T14:44:01.141Z,14.60
2019-05-07T14:46:35.036Z,15.00
2019-05-07T14:48:55.896Z,15.30
2019-05-07T14:51:22.312Z,15.30
2019-05-07T14:53:48.581Z,15.30
2019-05-07T14:56:14.837Z,15.30
2019-05-07T14:58:42.486Z,15.30
2019-05-07T15:01:08.890Z,15.20
2019-05-07T15:03:35.525Z,14.90
2019-05-07T15:06:02.213Z,14.90
2019-05-07T15:08:28.787Z,15.00
2019-05-07T15:10:55.416Z,15.10
2019-05-07T15:13:22.113Z,15.20
2019-05-07T15:15:49.150Z,14.80
2019-05-07T15:18:24.331Z,14.90
2019-05-07T15:20:52.505Z,14.70
2019-05-07T15:23:22.569Z,14.20
2019-05-07T15:25:51.599Z,14.10
2019-05-07T15:28:18.704Z,14.20
2019-05-07T15:30:47.453Z,14.20
2019-05-07T15:33:14.043Z,13.80
2019-05-07T15:35:42.443Z,13.80
2019-05-07T15:38:09.191Z,13.80
2019-05-07T15:40:35.951Z,13.80
2019-05-07T15:43:02.555Z,13.80
2019-05-07T15:45:29.213Z,13.60
2019-05-07T15:47:57.447Z,13.60
2019-05-07T15:50:26.125Z,13.60
2019-05-07T15:53:03.313Z,13.60
2019-05-07T15:55:30.127Z,13.70
2019-05-07T15:57:57.201Z,13.70
2019-05-07T16:00:28.808Z,13.50
2019-05-07T16:02:59.874Z,13.50
2019-05-07T16:05:26.325Z,13.40
2019-05-07T16:07:52.979Z,13.40
2019-05-07T16:10:19.686Z,13.40
2019-05-07T16:12:46.591Z,13.40
2019-05-07T16:15:13.871Z,13.40
2019-05-07T16:17:42.963Z,13.20
2019-05-07T16:20:12.036Z,13.20
2019-05-07T16:22:42.280Z,13.10
2019-05-07T16:25:08.693Z,13.10
2019-05-07T16:27:36.810Z,13.10
2019-05-07T16:30:05.034Z,13.20
2019-05-07T16:32:32.818Z,13.20
2019-05-07T16:34:59.891Z,13.30
2019-05-07T16:37:26.565Z,13.20
2019-05-07T16:39:53.263Z,13.10
2019-05-07T16:42:21.775Z,13.00
2019-05-07T16:44:48.305Z,13.00
2019-05-07T16:47:14.969Z,12.90
2019-05-07T16:49:42.447Z,13.00
2019-05-07T16:52:09.539Z,13.10
2019-05-07T16:54:36.421Z,13.10
2019-05-07T16:57:17.350Z,13.00
2019-05-07T16:59:44.451Z,13.00
2019-05-07T17:02:13.226Z,12.90
2019-05-07T17:05:03.107Z,12.90
2019-05-07T17:07:31.998Z,12.80
2019-05-07T17:09:58.301Z,12.80
2019-05-07T17:12:25.005Z,12.80
2019-05-07T17:14:51.820Z,12.70
2019-05-07T17:17:18.457Z,12.70
2019-05-07T17:19:45.003Z,12.70
2019-05-07T17:22:12.082Z,12.70
2019-05-07T17:24:38.488Z,12.80
2019-05-07T17:27:05.095Z,12.70
2019-05-07T17:29:32.152Z,12.80
2019-05-07T17:31:59.021Z,12.70
2019-05-07T17:34:25.445Z,12.70
2019-05-07T17:36:52.508Z,12.60
2019-05-07T17:39:19.290Z,12.60
2019-05-07T17:41:46.031Z,12.50
2019-05-07T17:44:17.387Z,12.50
2019-05-07T17:46:46.153Z,12.40
2019-05-07T17:49:12.758Z,12.50
2019-05-07T17:51:44.169Z,12.50
2019-05-07T17:54:13.164Z,12.40
2019-05-07T17:56:42.194Z,12.50
2019-05-07T17:59:09.350Z,12.50
2019-05-07T18:01:54.822Z,12.40
2019-05-07T18:04:21.476Z,12.30
2019-05-07T18:06:48.516Z,12.30
2019-05-07T18:09:15.319Z,12.20
2019-05-07T18:11:42.878Z,12.00
2019-05-07T18:14:09.820Z,12.00
2019-05-07T18:16:38.451Z,11.90
2019-05-07T18:19:05.182Z,11.80
2019-05-07T18:21:32.589Z,11.70
2019-05-07T18:24:11.262Z,11.60
2019-05-07T18:26:30.766Z,11.50
2019-05-07T18:28:56.618Z,11.40
2019-05-07T18:31:25.310Z,11.10
2019-05-07T18:33:53.396Z,11.00
2019-05-07T18:36:19.482Z,11.00
2019-05-07T18:38:45.629Z,10.90
2019-05-07T18:41:12.290Z,10.80
2019-05-07T18:43:38.970Z,10.70
2019-05-07T18:46:05.053Z,10.60
2019-05-07T18:48:31.201Z,10.40
2019-05-07T18:50:57.350Z,10.30
2019-05-07T18:53:23.446Z,10.30
2019-05-07T18:55:51.599Z,10.20
2019-05-07T18:58:17.565Z,10.20
2019-05-07T19:00:45.670Z,10.20
2019-05-07T19:03:11.923Z,10.10
2019-05-07T19:05:38.196Z,10.10
2019-05-07T19:08:08.341Z,10.10
2019-05-07T19:10:33.036Z,9.90
2019-05-07T19:12:59.375Z,9.60
2019-05-07T19:15:25.602Z,9.60
2019-05-07T19:17:51.722Z,9.70
2019-05-07T19:20:17.803Z,9.70
2019-05-07T19:22:43.964Z,9.70
2019-05-07T19:25:11.987Z,9.50
2019-05-07T19:27:41.063Z,9.40
2019-05-07T19:30:09.817Z,9.30
2019-05-07T19:32:38.631Z,9.20
2019-05-07T19:35:06.965Z,9.20
2019-05-07T19:37:35.298Z,9.30
2019-05-07T19:40:03.554Z,9.30
2019-05-07T19:42:33.455Z,9.20
2019-05-07T19:44:59.591Z,9.10
2019-05-07T19:47:28.706Z,9.10
2019-05-07T19:49:54.911Z,9.00
2019-05-07T19:52:23.214Z,8.80
2019-05-07T19:54:58.789Z,8.80
2019-05-07T19:57:23.166Z,8.70
2019-05-07T19:59:49.428Z,8.70
2019-05-07T20:02:22.836Z,8.50
2019-05-07T20:04:49.625Z,8.50
2019-05-07T20:07:16.387Z,8.50
2019-05-07T20:09:42.907Z,8.50
2019-05-07T20:12:09.177Z,8.40
2019-05-07T20:14:35.296Z,8.50
2019-05-07T20:17:04.447Z,8.40
2019-05-07T20:19:32.685Z,8.40
2019-05-07T20:21:58.987Z,8.40
2019-05-07T20:24:25.476Z,8.50
2019-05-07T20:26:52.606Z,8.40
2019-05-07T20:29:19.431Z,8.30
2019-05-07T20:31:47.650Z,8.30
2019-05-07T20:34:13.941Z,8.30
2019-05-07T20:36:42.850Z,8.30
2019-05-07T20:39:09.923Z,8.20
2019-05-07T20:41:36.267Z,8.30
2019-05-07T20:44:03.129Z,8.30
2019-05-07T20:46:31.930Z,8.20
2019-05-07T20:49:02.226Z,8.20
2019-05-07T20:51:28.207Z,8.20
2019-05-07T20:53:59.033Z,8.20
2019-05-07T20:56:32.218Z,8.00
2019-05-07T20:59:02.975Z,8.00
2019-05-07T21:01:29.338Z,7.90
2019-05-07T21:03:55.415Z,8.00
2019-05-07T21:06:22.557Z,8.00
2019-05-07T21:08:49.059Z,8.00
2019-05-07T21:11:17.391Z,7.90
2019-05-07T21:13:44.591Z,7.90
2019-05-07T21:16:12.666Z,8.00
2019-05-07T21:18:39.028Z,8.00
2019-05-07T21:21:05.107Z,8.00
2019-05-07T21:23:32.592Z,7.90
2019-05-07T21:25:58.941Z,7.90
2019-05-07T21:28:25.027Z,7.90
2019-05-07T21:30:52.214Z,7.90
2019-05-07T21:33:18.690Z,7.90
2019-05-07T21:35:44.904Z,7.90
2019-05-07T21:38:12.656Z,7.80
2019-05-07T21:40:39.077Z,7.70
2019-05-07T21:43:05.174Z,7.70
2019-05-07T21:45:32.745Z,7.70
2019-05-07T21:47:59.119Z,7.70
2019-05-07T21:50:25.244Z,7.60
2019-05-07T21:52:56.306Z,7.70
2019-05-07T21:55:24.419Z,7.70
2019-05-07T21:57:59.565Z,7.60
2019-05-07T22:00:34.200Z,7.60
2019-05-07T22:03:05.035Z,7.60
2019-05-07T22:05:31.173Z,7.50
2019-05-07T22:07:57.255Z,7.50
2019-05-07T22:10:23.514Z,7.50
2019-05-07T22:12:52.048Z,7.40
2019-05-07T22:15:17.946Z,7.40
2019-05-07T22:17:44.371Z,7.40
2019-05-07T22:20:11.961Z,7.40
2019-05-07T22:22:38.408Z,7.40
2019-05-07T22:25:05.555Z,7.30
2019-05-07T22:27:32.776Z,7.30
2019-05-07T22:30:02.092Z,7.40
2019-05-07T22:32:29.331Z,7.40
2019-05-07T22:35:09.524Z,7.40
2019-05-07T22:37:35.648Z,7.40
2019-05-07T22:40:04.341Z,7.30
2019-05-07T22:42:32.588Z,7.20
2019-05-07T22:44:58.458Z,7.20
2019-05-07T22:47:24.801Z,7.20
2019-05-07T22:49:53.582Z,7.30
2019-05-07T22:52:19.329Z,7.20
2019-05-07T22:54:45.725Z,7.20
2019-05-07T22:57:14.238Z,7.20
2019-05-07T22:59:40.524Z,7.20
2019-05-07T23:02:07.253Z,7.20
2019-05-07T23:04:33.326Z,7.20
2019-05-07T23:06:59.436Z,7.20
2019-05-07T23:09:25.560Z,7.10
2019-05-07T23:11:52.569Z,7.10
2019-05-07T23:14:19.724Z,7.20
2019-05-07T23:16:45.872Z,7.10
2019-05-07T23:19:14.041Z,7.10
2019-05-07T23:21:42.491Z,7.00
2019-05-07T23:24:08.152Z,7.00
2019-05-07T23:26:47.250Z,7.00
2019-05-07T23:29:02.524Z,7.00
2019-05-07T23:31:28.735Z,7.00
2019-05-07T23:33:54.842Z,6.90
2019-05-07T23:36:22.468Z,7.00
2019-05-07T23:38:48.864Z,7.00
2019-05-07T23:41:16.907Z,6.90
2019-05-07T23:43:45.038Z,7.00
2019-05-07T23:46:12.824Z,6.90
2019-05-07T23:48:39.272Z,6.80
2019-05-07T23:51:05.472Z,6.70
2019-05-07T23:53:31.698Z,6.70
2019-05-07T23:55:58.559Z,6.70
2019-05-07T23:58:24.692Z,6.70
